sensor_id;sensor_type;location;lat;lon;timestamp;temperature;humidity
1700;DHT22;847;48.058;7.810;2024-03-17T00:01:08;10.60;99.00
1700;DHT22;847;48.058;7.810;2024-03-17T00:03:34;10.60;99.00
1700;DHT22;847;48.058;7.810;2024-03-17T00:06:02;10.70;99.00
1700;DHT22;847;48.058;7.810;2024-03-17T00:08:28;10.70;99.00
1700;DHT22;847;48.058;7.810;2024-03-17T00:10:55;10.70;99.00
1700;DHT22;847;48.058;7.810;2024-03-17T00:13:21;10.70;99.00
1700;DHT22;847;48.058;7.810;2024-03-17T00:15:48;10.60;99.00
1700;DHT22;847;48.058;7.810;2024-03-17T00:18:14;10.60;99.00
1700;DHT22;847;48.058;7.810;2024-03-17T00:20:41;10.50;99.00
1700;DHT22;847;48.058;7.810;2024-03-17T00:23:08;10.50;99.00
1700;DHT22;847;48.058;7.810;2024-03-17T00:25:37;10.60;99.00
1700;DHT22;847;48.058;7.810;2024-03-17T00:28:03;10.60;99.00
1700;DHT22;847;48.058;7.810;2024-03-17T00:30:30;10.60;99.00
1700;DHT22;847;48.058;7.810;2024-03-17T00:32:56;10.60;99.00
1700;DHT22;847;48.058;7.810;2024-03-17T00:35:25;10.60;99.00
1700;DHT22;847;48.058;7.810;2024-03-17T00:37:51;10.60;99.00
1700;DHT22;847;48.058;7.810;2024-03-17T00:40:20;10.70;99.00
1700;DHT22;847;48.058;7.810;2024-03-17T00:42:47;10.60;99.00
1700;DHT22;847;48.058;7.810;2024-03-17T00:45:14;10.60;99.00
1700;DHT22;847;48.058;7.810;2024-03-17T00:47:40;10.60;99.00
1700;DHT22;847;48.058;7.810;2024-03-17T00:50:08;10.50;99.00
1700;DHT22;847;48.058;7.810;2024-03-17T00:52:36;10.50;99.00
1700;DHT22;847;48.058;7.810;2024-03-17T00:55:04;10.60;99.00
1700;DHT22;847;48.058;7.810;2024-03-17T00:57:31;10.60;99.00
1700;DHT22;847;48.058;7.810;2024-03-17T00:59:58;10.60;99.00
1700;DHT22;847;48.058;7.810;2024-03-17T01:02:24;10.60;99.00
1700;DHT22;847;48.058;7.810;2024-03-17T01:04:51;10.60;99.00
1700;DHT22;847;48.058;7.810;2024-03-17T01:07:17;10.60;99.00
1700;DHT22;847;48.058;7.810;2024-03-17T01:09:44;10.60;99.00
1700;DHT22;847;48.058;7.810;2024-03-17T01:12:12;10.50;99.00
1700;DHT22;847;48.058;7.810;2024-03-17T01:14:40;10.50;99.00
1700;DHT22;847;48.058;7.810;2024-03-17T01:17:07;10.50;99.00
1700;DHT22;847;48.058;7.810;2024-03-17T01:19:34;10.50;99.00
1700;DHT22;847;48.058;7.810;2024-03-17T01:22:01;10.50;99.00
1700;DHT22;847;48.058;7.810;2024-03-17T01:24:27;10.60;99.00
1700;DHT22;847;48.058;7.810;2024-03-17T01:26:57;10.60;99.00
1700;DHT22;847;48.058;7.810;2024-03-17T01:29:23;10.60;99.00
1700;DHT22;847;48.058;7.810;2024-03-17T01:31:51;10.50;99.00
1700;DHT22;847;48.058;7.810;2024-03-17T01:34:19;10.50;99.00
1700;DHT22;847;48.058;7.810;2024-03-17T01:36:45;10.50;99.00
1700;DHT22;847;48.058;7.810;2024-03-17T01:39:11;10.50;99.00
1700;DHT22;847;48.058;7.810;2024-03-17T01:41:38;10.50;99.00
1700;DHT22;847;48.058;7.810;2024-03-17T01:44:04;10.50;99.00
1700;DHT22;847;48.058;7.810;2024-03-17T01:46:32;10.40;99.00
1700;DHT22;847;48.058;7.810;2024-03-17T01:49:00;10.40;99.00
1700;DHT22;847;48.058;7.810;2024-03-17T01:51:29;10.40;99.00
1700;DHT22;847;48.058;7.810;2024-03-17T01:53:55;10.40;99.00
1700;DHT22;847;48.058;7.810;2024-03-17T01:56:22;10.40;99.00
1700;DHT22;847;48.058;7.810;2024-03-17T01:58:48;10.40;99.00
1700;DHT22;847;48.058;7.810;2024-03-17T02:01:16;10.40;99.00
1700;DHT22;847;48.058;7.810;2024-03-17T02:03:42;10.30;99.00
1700;DHT22;847;48.058;7.810;2024-03-17T02:06:10;10.40;99.00
1700;DHT22;847;48.058;7.810;2024-03-17T02:08:48;10.40;99.00
1700;DHT22;847;48.058;7.810;2024-03-17T02:11:25;10.30;99.00
1700;DHT22;847;48.058;7.810;2024-03-17T02:13:52;10.30;99.00
1700;DHT22;847;48.058;7.810;2024-03-17T02:16:19;10.30;99.00
1700;DHT22;847;48.058;7.810;2024-03-17T02:18:45;10.20;99.00
1700;DHT22;847;48.058;7.810;2024-03-17T02:21:14;10.10;99.00
1700;DHT22;847;48.058;7.810;2024-03-17T02:23:43;10.10;99.00
1700;DHT22;847;48.058;7.810;2024-03-17T02:26:08;10.10;99.00
1700;DHT22;847;48.058;7.810;2024-03-17T02:28:38;10.10;99.00
1700;DHT22;847;48.058;7.810;2024-03-17T02:31:06;10.10;99.00
1700;DHT22;847;48.058;7.810;2024-03-17T02:33:33;10.10;99.00
1700;DHT22;847;48.058;7.810;2024-03-17T02:35:59;10.10;99.00
1700;DHT22;847;48.058;7.810;2024-03-17T02:38:26;10.10;99.00
1700;DHT22;847;48.058;7.810;2024-03-17T02:41:08;10.10;99.00
1700;DHT22;847;48.058;7.810;2024-03-17T02:43:35;10.10;99.00
1700;DHT22;847;48.058;7.810;2024-03-17T02:46:02;10.10;99.00
1700;DHT22;847;48.058;7.810;2024-03-17T02:48:30;10.10;99.00
1700;DHT22;847;48.058;7.810;2024-03-17T02:50:57;10.10;99.00
1700;DHT22;847;48.058;7.810;2024-03-17T02:53:24;10.00;99.00
1700;DHT22;847;48.058;7.810;2024-03-17T02:55:50;10.00;99.00
1700;DHT22;847;48.058;7.810;2024-03-17T02:58:19;10.00;99.00
1700;DHT22;847;48.058;7.810;2024-03-17T03:00:45;10.00;99.00
1700;DHT22;847;48.058;7.810;2024-03-17T03:03:12;10.00;99.00
1700;DHT22;847;48.058;7.810;2024-03-17T03:05:39;9.80;99.00
1700;DHT22;847;48.058;7.810;2024-03-17T03:08:06;9.80;99.00
1700;DHT22;847;48.058;7.810;2024-03-17T03:10:33;9.80;99.00
1700;DHT22;847;48.058;7.810;2024-03-17T03:13:01;9.80;99.00
1700;DHT22;847;48.058;7.810;2024-03-17T03:15:30;9.80;99.00
1700;DHT22;847;48.058;7.810;2024-03-17T03:17:58;9.80;99.00
1700;DHT22;847;48.058;7.810;2024-03-17T03:20:24;9.70;99.00
1700;DHT22;847;48.058;7.810;2024-03-17T03:22:51;9.70;99.00
1700;DHT22;847;48.058;7.810;2024-03-17T03:25:18;9.60;99.00
1700;DHT22;847;48.058;7.810;2024-03-17T03:27:45;9.60;99.00
1700;DHT22;847;48.058;7.810;2024-03-17T03:30:12;9.60;99.00
1700;DHT22;847;48.058;7.810;2024-03-17T03:32:42;9.60;99.00
1700;DHT22;847;48.058;7.810;2024-03-17T03:35:08;9.60;99.00
1700;DHT22;847;48.058;7.810;2024-03-17T03:37:37;9.50;99.00
1700;DHT22;847;48.058;7.810;2024-03-17T03:40:04;9.50;99.00
1700;DHT22;847;48.058;7.810;2024-03-17T03:42:41;9.40;99.00
1700;DHT22;847;48.058;7.810;2024-03-17T03:45:08;9.40;99.00
1700;DHT22;847;48.058;7.810;2024-03-17T03:47:37;9.30;99.00
1700;DHT22;847;48.058;7.810;2024-03-17T03:50:07;9.30;99.00
1700;DHT22;847;48.058;7.810;2024-03-17T03:52:34;9.20;99.00
1700;DHT22;847;48.058;7.810;2024-03-17T03:55:01;9.20;99.00
1700;DHT22;847;48.058;7.810;2024-03-17T03:57:29;9.20;99.00
1700;DHT22;847;48.058;7.810;2024-03-17T03:59:57;9.30;99.00
1700;DHT22;847;48.058;7.810;2024-03-17T04:02:24;9.30;99.00
1700;DHT22;847;48.058;7.810;2024-03-17T04:04:56;9.40;99.00
1700;DHT22;847;48.058;7.810;2024-03-17T04:07:24;9.40;99.00
1700;DHT22;847;48.058;7.810;2024-03-17T04:09:52;9.50;99.00
1700;DHT22;847;48.058;7.810;2024-03-17T04:12:19;9.50;99.00
1700;DHT22;847;48.058;7.810;2024-03-17T04:14:46;9.60;99.00
1700;DHT22;847;48.058;7.810;2024-03-17T04:17:18;9.40;99.00
1700;DHT22;847;48.058;7.810;2024-03-17T04:19:46;9.20;99.00
1700;DHT22;847;48.058;7.810;2024-03-17T04:22:13;8.90;99.00
1700;DHT22;847;48.058;7.810;2024-03-17T04:24:42;8.80;99.00
1700;DHT22;847;48.058;7.810;2024-03-17T04:27:08;8.80;99.00
1700;DHT22;847;48.058;7.810;2024-03-17T04:29:35;8.90;99.00
1700;DHT22;847;48.058;7.810;2024-03-17T04:32:02;8.90;99.00
1700;DHT22;847;48.058;7.810;2024-03-17T04:34:30;8.90;99.00
1700;DHT22;847;48.058;7.810;2024-03-17T04:36:57;9.00;99.00
1700;DHT22;847;48.058;7.810;2024-03-17T04:39:24;8.90;99.00
1700;DHT22;847;48.058;7.810;2024-03-17T04:41:52;9.00;99.00
1700;DHT22;847;48.058;7.810;2024-03-17T04:44:19;9.00;99.00
1700;DHT22;847;48.058;7.810;2024-03-17T04:46:46;8.90;99.00
1700;DHT22;847;48.058;7.810;2024-03-17T04:49:12;8.90;99.00
1700;DHT22;847;48.058;7.810;2024-03-17T04:51:39;8.90;99.00
1700;DHT22;847;48.058;7.810;2024-03-17T04:54:06;8.90;99.00
1700;DHT22;847;48.058;7.810;2024-03-17T04:56:33;8.90;99.00
1700;DHT22;847;48.058;7.810;2024-03-17T04:59:01;8.80;99.00
1700;DHT22;847;48.058;7.810;2024-03-17T05:01:28;8.80;99.00
1700;DHT22;847;48.058;7.810;2024-03-17T05:03:56;8.70;99.00
1700;DHT22;847;48.058;7.810;2024-03-17T05:06:23;8.70;99.00
1700;DHT22;847;48.058;7.810;2024-03-17T05:08:50;8.50;99.00
1700;DHT22;847;48.058;7.810;2024-03-17T05:11:16;8.30;99.00
1700;DHT22;847;48.058;7.810;2024-03-17T05:13:44;8.30;99.00
1700;DHT22;847;48.058;7.810;2024-03-17T05:16:12;8.20;99.00
1700;DHT22;847;48.058;7.810;2024-03-17T05:18:39;8.10;99.00
1700;DHT22;847;48.058;7.810;2024-03-17T05:21:06;8.10;99.00
1700;DHT22;847;48.058;7.810;2024-03-17T05:23:35;8.20;99.00
1700;DHT22;847;48.058;7.810;2024-03-17T05:26:03;8.30;99.00
1700;DHT22;847;48.058;7.810;2024-03-17T05:28:31;8.30;99.00
1700;DHT22;847;48.058;7.810;2024-03-17T05:30:57;8.30;99.00
1700;DHT22;847;48.058;7.810;2024-03-17T05:33:26;8.30;99.00
1700;DHT22;847;48.058;7.810;2024-03-17T05:35:54;8.30;99.00
1700;DHT22;847;48.058;7.810;2024-03-17T05:38:22;8.30;99.00
1700;DHT22;847;48.058;7.810;2024-03-17T05:40:54;8.30;99.00
1700;DHT22;847;48.058;7.810;2024-03-17T05:43:21;8.30;99.00
1700;DHT22;847;48.058;7.810;2024-03-17T05:45:47;8.20;99.00
1700;DHT22;847;48.058;7.810;2024-03-17T05:48:14;8.30;99.00
1700;DHT22;847;48.058;7.810;2024-03-17T05:50:42;8.30;99.00
1700;DHT22;847;48.058;7.810;2024-03-17T05:53:09;8.20;99.00
1700;DHT22;847;48.058;7.810;2024-03-17T05:55:36;8.10;99.00
1700;DHT22;847;48.058;7.810;2024-03-17T05:58:03;8.10;99.00
1700;DHT22;847;48.058;7.810;2024-03-17T06:00:30;8.20;99.00
1700;DHT22;847;48.058;7.810;2024-03-17T06:02:57;8.20;99.00
1700;DHT22;847;48.058;7.810;2024-03-17T06:05:25;8.30;99.00
1700;DHT22;847;48.058;7.810;2024-03-17T06:07:53;8.20;99.00
1700;DHT22;847;48.058;7.810;2024-03-17T06:10:20;8.20;99.00
1700;DHT22;847;48.058;7.810;2024-03-17T06:12:49;8.20;99.00
1700;DHT22;847;48.058;7.810;2024-03-17T06:15:16;8.20;99.00
1700;DHT22;847;48.058;7.810;2024-03-17T06:17:43;8.30;99.00
1700;DHT22;847;48.058;7.810;2024-03-17T06:20:10;8.40;99.00
1700;DHT22;847;48.058;7.810;2024-03-17T06:22:39;8.40;99.00
1700;DHT22;847;48.058;7.810;2024-03-17T06:25:07;8.40;99.00
1700;DHT22;847;48.058;7.810;2024-03-17T06:27:34;8.40;99.00
1700;DHT22;847;48.058;7.810;2024-03-17T06:30:01;8.40;99.00
1700;DHT22;847;48.058;7.810;2024-03-17T06:32:29;8.40;99.00
1700;DHT22;847;48.058;7.810;2024-03-17T06:34:56;8.40;99.00
1700;DHT22;847;48.058;7.810;2024-03-17T06:37:23;8.50;99.00
1700;DHT22;847;48.058;7.810;2024-03-17T06:39:50;8.50;99.00
1700;DHT22;847;48.058;7.810;2024-03-17T06:42:18;8.60;99.00
1700;DHT22;847;48.058;7.810;2024-03-17T06:44:45;8.70;99.00
1700;DHT22;847;48.058;7.810;2024-03-17T06:47:12;8.70;99.00
1700;DHT22;847;48.058;7.810;2024-03-17T06:49:39;8.80;99.00
1700;DHT22;847;48.058;7.810;2024-03-17T06:52:05;8.80;99.00
1700;DHT22;847;48.058;7.810;2024-03-17T06:54:32;8.80;99.00
1700;DHT22;847;48.058;7.810;2024-03-17T06:56:59;8.80;99.00
1700;DHT22;847;48.058;7.810;2024-03-17T06:59:27;8.80;99.00
1700;DHT22;847;48.058;7.810;2024-03-17T07:01:54;8.80;99.00
1700;DHT22;847;48.058;7.810;2024-03-17T07:04:20;8.80;99.00
1700;DHT22;847;48.058;7.810;2024-03-17T07:06:47;8.80;99.00
1700;DHT22;847;48.058;7.810;2024-03-17T07:09:15;8.90;99.00
1700;DHT22;847;48.058;7.810;2024-03-17T07:11:42;8.80;99.00
1700;DHT22;847;48.058;7.810;2024-03-17T07:14:10;8.80;99.00
1700;DHT22;847;48.058;7.810;2024-03-17T07:16:38;8.90;99.00
1700;DHT22;847;48.058;7.810;2024-03-17T07:19:05;8.90;99.00
1700;DHT22;847;48.058;7.810;2024-03-17T07:21:32;8.90;99.00
1700;DHT22;847;48.058;7.810;2024-03-17T07:23:58;9.00;99.00
1700;DHT22;847;48.058;7.810;2024-03-17T07:26:29;9.00;99.00
1700;DHT22;847;48.058;7.810;2024-03-17T07:28:56;9.10;99.00
1700;DHT22;847;48.058;7.810;2024-03-17T07:31:23;9.10;99.00
1700;DHT22;847;48.058;7.810;2024-03-17T07:33:51;9.10;99.00
1700;DHT22;847;48.058;7.810;2024-03-17T07:36:18;9.20;99.00
1700;DHT22;847;48.058;7.810;2024-03-17T07:38:47;9.20;99.00
1700;DHT22;847;48.058;7.810;2024-03-17T07:41:14;9.30;99.00
1700;DHT22;847;48.058;7.810;2024-03-17T07:43:41;9.30;99.00
1700;DHT22;847;48.058;7.810;2024-03-17T07:46:09;9.30;99.00
1700;DHT22;847;48.058;7.810;2024-03-17T07:48:38;9.40;99.00
1700;DHT22;847;48.058;7.810;2024-03-17T07:51:08;9.30;99.00
1700;DHT22;847;48.058;7.810;2024-03-17T07:53:36;9.30;99.00
1700;DHT22;847;48.058;7.810;2024-03-17T07:56:04;9.30;99.00
1700;DHT22;847;48.058;7.810;2024-03-17T07:58:32;9.30;99.00
1700;DHT22;847;48.058;7.810;2024-03-17T08:01:00;9.30;99.00
1700;DHT22;847;48.058;7.810;2024-03-17T08:03:28;9.40;99.00
1700;DHT22;847;48.058;7.810;2024-03-17T08:05:55;9.40;99.00
1700;DHT22;847;48.058;7.810;2024-03-17T08:08:23;9.40;99.00
1700;DHT22;847;48.058;7.810;2024-03-17T08:10:50;9.40;99.00
1700;DHT22;847;48.058;7.810;2024-03-17T08:13:18;9.40;99.00
1700;DHT22;847;48.058;7.810;2024-03-17T08:15:45;9.50;99.00
1700;DHT22;847;48.058;7.810;2024-03-17T08:18:12;9.50;99.00
1700;DHT22;847;48.058;7.810;2024-03-17T08:20:40;9.60;99.00
1700;DHT22;847;48.058;7.810;2024-03-17T08:23:08;9.60;99.00
1700;DHT22;847;48.058;7.810;2024-03-17T08:25:37;9.60;99.00
1700;DHT22;847;48.058;7.810;2024-03-17T08:28:04;9.60;99.00
1700;DHT22;847;48.058;7.810;2024-03-17T08:30:31;9.70;99.00
1700;DHT22;847;48.058;7.810;2024-03-17T08:32:58;9.80;99.00
1700;DHT22;847;48.058;7.810;2024-03-17T08:35:25;9.80;99.00
1700;DHT22;847;48.058;7.810;2024-03-17T08:37:52;9.90;99.00
1700;DHT22;847;48.058;7.810;2024-03-17T08:40:20;9.90;99.00
1700;DHT22;847;48.058;7.810;2024-03-17T08:42:48;9.90;99.00
1700;DHT22;847;48.058;7.810;2024-03-17T08:45:15;10.00;99.00
1700;DHT22;847;48.058;7.810;2024-03-17T08:47:41;10.00;99.00
1700;DHT22;847;48.058;7.810;2024-03-17T08:50:09;10.00;99.00
1700;DHT22;847;48.058;7.810;2024-03-17T08:52:38;10.00;99.00
1700;DHT22;847;48.058;7.810;2024-03-17T08:55:05;10.10;99.00
1700;DHT22;847;48.058;7.810;2024-03-17T08:57:35;10.10;99.00
1700;DHT22;847;48.058;7.810;2024-03-17T09:00:04;10.10;99.00
1700;DHT22;847;48.058;7.810;2024-03-17T09:02:31;10.20;99.00
1700;DHT22;847;48.058;7.810;2024-03-17T09:04:58;10.20;99.00
1700;DHT22;847;48.058;7.810;2024-03-17T09:07:25;10.20;99.00
1700;DHT22;847;48.058;7.810;2024-03-17T09:09:51;10.20;99.00
1700;DHT22;847;48.058;7.810;2024-03-17T09:12:18;10.20;99.00
1700;DHT22;847;48.058;7.810;2024-03-17T09:14:47;10.30;99.00
1700;DHT22;847;48.058;7.810;2024-03-17T09:17:15;10.30;99.00
1700;DHT22;847;48.058;7.810;2024-03-17T09:19:45;10.30;99.00
1700;DHT22;847;48.058;7.810;2024-03-17T09:22:12;10.40;99.00
1700;DHT22;847;48.058;7.810;2024-03-17T09:24:38;10.40;99.00
1700;DHT22;847;48.058;7.810;2024-03-17T09:27:06;10.40;99.00
1700;DHT22;847;48.058;7.810;2024-03-17T09:29:33;10.40;99.00
1700;DHT22;847;48.058;7.810;2024-03-17T09:31:59;10.40;99.00
1700;DHT22;847;48.058;7.810;2024-03-17T09:34:27;10.40;99.00
1700;DHT22;847;48.058;7.810;2024-03-17T09:36:56;10.40;99.00
1700;DHT22;847;48.058;7.810;2024-03-17T09:39:22;10.50;99.00
1700;DHT22;847;48.058;7.810;2024-03-17T09:41:50;10.50;99.00
1700;DHT22;847;48.058;7.810;2024-03-17T09:44:17;10.60;99.00
1700;DHT22;847;48.058;7.810;2024-03-17T09:46:44;10.50;99.00
1700;DHT22;847;48.058;7.810;2024-03-17T09:49:15;10.60;99.00
1700;DHT22;847;48.058;7.810;2024-03-17T09:51:44;10.70;99.00
1700;DHT22;847;48.058;7.810;2024-03-17T09:54:17;10.70;99.00
1700;DHT22;847;48.058;7.810;2024-03-17T09:56:45;10.60;99.00
1700;DHT22;847;48.058;7.810;2024-03-17T09:59:12;10.70;99.00
1700;DHT22;847;48.058;7.810;2024-03-17T10:01:38;10.70;99.00
1700;DHT22;847;48.058;7.810;2024-03-17T10:04:05;10.70;99.00
1700;DHT22;847;48.058;7.810;2024-03-17T10:06:45;10.70;99.00
1700;DHT22;847;48.058;7.810;2024-03-17T10:09:16;10.80;99.00
1700;DHT22;847;48.058;7.810;2024-03-17T10:11:46;10.90;99.00
1700;DHT22;847;48.058;7.810;2024-03-17T10:14:16;10.90;99.00
1700;DHT22;847;48.058;7.810;2024-03-17T10:16:43;10.90;99.00
1700;DHT22;847;48.058;7.810;2024-03-17T10:19:12;10.90;99.00
1700;DHT22;847;48.058;7.810;2024-03-17T10:21:40;10.90;99.00
1700;DHT22;847;48.058;7.810;2024-03-17T10:24:10;11.00;99.00
1700;DHT22;847;48.058;7.810;2024-03-17T10:26:41;11.00;99.00
1700;DHT22;847;48.058;7.810;2024-03-17T10:29:19;11.00;99.00
1700;DHT22;847;48.058;7.810;2024-03-17T10:31:46;11.00;99.00
1700;DHT22;847;48.058;7.810;2024-03-17T10:34:15;11.10;99.00
1700;DHT22;847;48.058;7.810;2024-03-17T10:36:44;11.10;99.00
1700;DHT22;847;48.058;7.810;2024-03-17T10:39:23;11.10;99.00
1700;DHT22;847;48.058;7.810;2024-03-17T10:41:56;11.10;99.00
1700;DHT22;847;48.058;7.810;2024-03-17T10:44:22;11.20;99.00
1700;DHT22;847;48.058;7.810;2024-03-17T10:46:52;11.20;99.00
1700;DHT22;847;48.058;7.810;2024-03-17T10:49:21;11.20;99.00
1700;DHT22;847;48.058;7.810;2024-03-17T10:51:54;11.20;99.00
1700;DHT22;847;48.058;7.810;2024-03-17T10:54:24;11.20;99.00
1700;DHT22;847;48.058;7.810;2024-03-17T10:56:55;11.30;99.00
1700;DHT22;847;48.058;7.810;2024-03-17T10:59:28;11.30;99.00
1700;DHT22;847;48.058;7.810;2024-03-17T11:01:58;11.40;99.00
1700;DHT22;847;48.058;7.810;2024-03-17T11:04:26;11.40;99.00
1700;DHT22;847;48.058;7.810;2024-03-17T11:06:54;11.40;99.00
1700;DHT22;847;48.058;7.810;2024-03-17T11:09:25;11.40;99.00
1700;DHT22;847;48.058;7.810;2024-03-17T11:11:52;11.50;99.00
1700;DHT22;847;48.058;7.810;2024-03-17T11:14:19;11.50;99.00
1700;DHT22;847;48.058;7.810;2024-03-17T11:16:48;11.50;99.00
1700;DHT22;847;48.058;7.810;2024-03-17T11:19:16;11.60;99.00
1700;DHT22;847;48.058;7.810;2024-03-17T11:21:43;11.60;99.00
1700;DHT22;847;48.058;7.810;2024-03-17T11:24:19;11.70;99.00
1700;DHT22;847;48.058;7.810;2024-03-17T11:26:47;11.60;99.00
1700;DHT22;847;48.058;7.810;2024-03-17T11:29:27;11.70;99.00
1700;DHT22;847;48.058;7.810;2024-03-17T11:31:53;11.70;99.00
1700;DHT22;847;48.058;7.810;2024-03-17T11:34:31;11.80;99.00
1700;DHT22;847;48.058;7.810;2024-03-17T11:36:58;11.80;99.00
1700;DHT22;847;48.058;7.810;2024-03-17T11:39:47;11.80;99.00
1700;DHT22;847;48.058;7.810;2024-03-17T11:42:16;11.80;99.00
1700;DHT22;847;48.058;7.810;2024-03-17T11:44:44;11.90;99.00
1700;DHT22;847;48.058;7.810;2024-03-17T11:47:18;11.90;99.00
1700;DHT22;847;48.058;7.810;2024-03-17T11:49:46;11.90;99.00
1700;DHT22;847;48.058;7.810;2024-03-17T11:52:13;11.90;99.00
1700;DHT22;847;48.058;7.810;2024-03-17T11:54:42;11.90;99.00
1700;DHT22;847;48.058;7.810;2024-03-17T11:57:09;11.90;99.00
1700;DHT22;847;48.058;7.810;2024-03-17T11:59:38;12.00;99.00
1700;DHT22;847;48.058;7.810;2024-03-17T12:02:10;11.90;99.00
1700;DHT22;847;48.058;7.810;2024-03-17T12:04:40;11.90;99.00
1700;DHT22;847;48.058;7.810;2024-03-17T12:07:12;12.00;99.00
1700;DHT22;847;48.058;7.810;2024-03-17T12:09:40;11.90;99.00
1700;DHT22;847;48.058;7.810;2024-03-17T12:12:09;11.90;99.00
1700;DHT22;847;48.058;7.810;2024-03-17T12:14:38;11.90;99.00
1700;DHT22;847;48.058;7.810;2024-03-17T12:17:06;11.80;99.00
1700;DHT22;847;48.058;7.810;2024-03-17T12:19:34;11.90;99.00
1700;DHT22;847;48.058;7.810;2024-03-17T12:22:02;11.80;99.00
1700;DHT22;847;48.058;7.810;2024-03-17T12:24:30;11.90;99.00
1700;DHT22;847;48.058;7.810;2024-03-17T12:26:59;11.80;99.00
1700;DHT22;847;48.058;7.810;2024-03-17T12:29:27;11.80;99.00
1700;DHT22;847;48.058;7.810;2024-03-17T12:31:57;11.80;99.00
1700;DHT22;847;48.058;7.810;2024-03-17T12:34:25;11.80;99.00
1700;DHT22;847;48.058;7.810;2024-03-17T12:36:53;11.90;99.00
1700;DHT22;847;48.058;7.810;2024-03-17T12:39:20;11.90;99.00
1700;DHT22;847;48.058;7.810;2024-03-17T12:42:03;11.90;99.00
1700;DHT22;847;48.058;7.810;2024-03-17T12:44:29;11.90;99.00
1700;DHT22;847;48.058;7.810;2024-03-17T12:46:58;11.90;99.00
1700;DHT22;847;48.058;7.810;2024-03-17T12:49:26;11.80;99.00
1700;DHT22;847;48.058;7.810;2024-03-17T12:51:53;11.90;99.00
1700;DHT22;847;48.058;7.810;2024-03-17T12:54:22;11.90;99.00
1700;DHT22;847;48.058;7.810;2024-03-17T12:56:49;11.90;99.00
1700;DHT22;847;48.058;7.810;2024-03-17T12:59:43;11.90;99.00
1700;DHT22;847;48.058;7.810;2024-03-17T13:02:30;11.90;99.00
1700;DHT22;847;48.058;7.810;2024-03-17T13:05:16;11.90;99.00
1700;DHT22;847;48.058;7.810;2024-03-17T13:07:44;11.90;99.00
1700;DHT22;847;48.058;7.810;2024-03-17T13:10:15;11.90;99.00
1700;DHT22;847;48.058;7.810;2024-03-17T13:12:42;11.90;99.00
1700;DHT22;847;48.058;7.810;2024-03-17T13:15:14;11.90;99.00
1700;DHT22;847;48.058;7.810;2024-03-17T13:17:43;11.90;99.00
1700;DHT22;847;48.058;7.810;2024-03-17T13:20:13;11.90;99.00
1700;DHT22;847;48.058;7.810;2024-03-17T13:22:40;11.90;99.00
1700;DHT22;847;48.058;7.810;2024-03-17T13:25:14;12.00;99.00
1700;DHT22;847;48.058;7.810;2024-03-17T13:27:41;12.00;99.00
1700;DHT22;847;48.058;7.810;2024-03-17T13:30:09;12.10;99.00
1700;DHT22;847;48.058;7.810;2024-03-17T13:32:36;12.10;99.00
1700;DHT22;847;48.058;7.810;2024-03-17T13:35:05;12.00;99.00
1700;DHT22;847;48.058;7.810;2024-03-17T13:37:33;12.10;99.00
1700;DHT22;847;48.058;7.810;2024-03-17T13:40:00;12.20;99.00
1700;DHT22;847;48.058;7.810;2024-03-17T13:42:30;12.20;99.00
1700;DHT22;847;48.058;7.810;2024-03-17T13:44:57;12.20;99.00
1700;DHT22;847;48.058;7.810;2024-03-17T13:47:23;12.30;99.00
1700;DHT22;847;48.058;7.810;2024-03-17T13:49:50;12.30;99.00
1700;DHT22;847;48.058;7.810;2024-03-17T13:52:18;12.30;99.00
1700;DHT22;847;48.058;7.810;2024-03-17T13:54:45;12.30;99.00
1700;DHT22;847;48.058;7.810;2024-03-17T13:57:11;12.30;99.00
1700;DHT22;847;48.058;7.810;2024-03-17T13:59:38;12.40;99.00
1700;DHT22;847;48.058;7.810;2024-03-17T14:02:09;12.50;99.00
1700;DHT22;847;48.058;7.810;2024-03-17T14:04:38;12.50;99.00
1700;DHT22;847;48.058;7.810;2024-03-17T14:07:05;12.50;99.00
1700;DHT22;847;48.058;7.810;2024-03-17T14:09:33;12.50;99.00
1700;DHT22;847;48.058;7.810;2024-03-17T14:12:00;12.50;99.00
1700;DHT22;847;48.058;7.810;2024-03-17T14:14:26;12.50;99.00
1700;DHT22;847;48.058;7.810;2024-03-17T14:16:53;12.60;99.00
1700;DHT22;847;48.058;7.810;2024-03-17T14:19:20;12.60;99.00
1700;DHT22;847;48.058;7.810;2024-03-17T14:21:47;12.60;99.00
1700;DHT22;847;48.058;7.810;2024-03-17T14:24:14;12.50;99.00
1700;DHT22;847;48.058;7.810;2024-03-17T14:26:42;12.50;99.00
1700;DHT22;847;48.058;7.810;2024-03-17T14:29:08;12.50;99.00
1700;DHT22;847;48.058;7.810;2024-03-17T14:31:35;12.50;99.00
1700;DHT22;847;48.058;7.810;2024-03-17T14:34:03;12.50;99.00
1700;DHT22;847;48.058;7.810;2024-03-17T14:36:31;12.50;99.00
1700;DHT22;847;48.058;7.810;2024-03-17T14:38:58;12.50;99.00
1700;DHT22;847;48.058;7.810;2024-03-17T14:41:27;12.50;99.00
1700;DHT22;847;48.058;7.810;2024-03-17T14:43:56;12.60;99.00
1700;DHT22;847;48.058;7.810;2024-03-17T14:46:23;12.60;99.00
1700;DHT22;847;48.058;7.810;2024-03-17T14:48:50;12.60;99.00
1700;DHT22;847;48.058;7.810;2024-03-17T14:51:17;12.60;99.00
1700;DHT22;847;48.058;7.810;2024-03-17T14:53:44;12.60;99.00
1700;DHT22;847;48.058;7.810;2024-03-17T14:56:15;12.60;99.00
1700;DHT22;847;48.058;7.810;2024-03-17T14:58:42;12.60;99.00
1700;DHT22;847;48.058;7.810;2024-03-17T15:01:10;12.60;99.00
1700;DHT22;847;48.058;7.810;2024-03-17T15:03:38;12.60;99.00
1700;DHT22;847;48.058;7.810;2024-03-17T15:06:09;12.60;99.00
1700;DHT22;847;48.058;7.810;2024-03-17T15:08:36;12.50;99.00
1700;DHT22;847;48.058;7.810;2024-03-17T15:11:03;12.60;99.00
1700;DHT22;847;48.058;7.810;2024-03-17T15:13:30;12.60;99.00
1700;DHT22;847;48.058;7.810;2024-03-17T15:15:56;12.60;99.00
1700;DHT22;847;48.058;7.810;2024-03-17T15:18:24;12.50;99.00
1700;DHT22;847;48.058;7.810;2024-03-17T15:20:52;12.50;99.00
1700;DHT22;847;48.058;7.810;2024-03-17T15:23:20;12.60;99.00
1700;DHT22;847;48.058;7.810;2024-03-17T15:25:47;12.60;99.00
1700;DHT22;847;48.058;7.810;2024-03-17T15:28:14;12.60;99.00
1700;DHT22;847;48.058;7.810;2024-03-17T15:30:40;12.60;99.00
1700;DHT22;847;48.058;7.810;2024-03-17T15:33:07;12.60;99.00
1700;DHT22;847;48.058;7.810;2024-03-17T15:35:35;12.60;99.00
1700;DHT22;847;48.058;7.810;2024-03-17T15:38:02;12.60;99.00
1700;DHT22;847;48.058;7.810;2024-03-17T15:40:29;12.60;99.00
1700;DHT22;847;48.058;7.810;2024-03-17T15:42:56;12.60;99.00
1700;DHT22;847;48.058;7.810;2024-03-17T15:45:24;12.60;99.00
1700;DHT22;847;48.058;7.810;2024-03-17T15:47:52;12.60;99.00
1700;DHT22;847;48.058;7.810;2024-03-17T15:50:19;12.70;99.00
1700;DHT22;847;48.058;7.810;2024-03-17T15:52:47;12.70;99.00
1700;DHT22;847;48.058;7.810;2024-03-17T15:55:15;12.70;99.00
1700;DHT22;847;48.058;7.810;2024-03-17T15:57:41;12.70;99.00
1700;DHT22;847;48.058;7.810;2024-03-17T16:00:09;12.60;99.00
1700;DHT22;847;48.058;7.810;2024-03-17T16:02:37;12.60;99.00
1700;DHT22;847;48.058;7.810;2024-03-17T16:05:05;12.60;99.00
1700;DHT22;847;48.058;7.810;2024-03-17T16:07:36;12.60;99.00
1700;DHT22;847;48.058;7.810;2024-03-17T16:10:05;12.60;99.00
1700;DHT22;847;48.058;7.810;2024-03-17T16:12:34;12.50;99.00
1700;DHT22;847;48.058;7.810;2024-03-17T16:15:01;12.50;99.00
1700;DHT22;847;48.058;7.810;2024-03-17T16:17:29;12.40;99.00
1700;DHT22;847;48.058;7.810;2024-03-17T16:19:56;12.40;99.00
1700;DHT22;847;48.058;7.810;2024-03-17T16:22:26;12.40;99.00
1700;DHT22;847;48.058;7.810;2024-03-17T16:24:53;12.40;99.00
1700;DHT22;847;48.058;7.810;2024-03-17T16:27:21;12.40;99.00
1700;DHT22;847;48.058;7.810;2024-03-17T16:29:48;12.40;99.00